createdAt,value
2023-02-19T00:00:50.873Z,6.80
2023-02-19T00:03:21.679Z,6.81
2023-02-19T00:05:55.185Z,6.88
2023-02-19T00:08:25.876Z,6.89
2023-02-19T00:10:56.565Z,6.84
2023-02-19T00:13:27.032Z,6.83
2023-02-19T00:15:57.841Z,7.07
2023-02-19T00:18:28.422Z,6.89
2023-02-19T00:21:03.384Z,6.88
2023-02-19T00:23:34.372Z,6.78
2023-02-19T00:26:17.593Z,6.78
2023-02-19T00:28:50.608Z,6.70
2023-02-19T00:31:23.532Z,6.72
2023-02-19T00:33:56.161Z,6.82
2023-02-19T00:36:31.688Z,6.86
2023-02-19T00:39:02.665Z,6.89
2023-02-19T00:41:33.146Z,6.85
2023-02-19T00:44:06.104Z,7.19
2023-02-19T00:46:39.332Z,7.20
2023-02-19T00:49:11.559Z,7.22
2023-02-19T00:51:44.911Z,7.35
2023-02-19T00:54:15.504Z,7.26
2023-02-19T00:56:45.998Z,7.09
2023-02-19T00:59:16.477Z,7.11
2023-02-19T01:01:48.096Z,7.27
2023-02-19T01:04:18.950Z,7.25
2023-02-19T01:06:52.421Z,7.30
2023-02-19T01:09:23.956Z,7.36
2023-02-19T01:11:54.346Z,7.48
2023-02-19T01:14:24.631Z,7.50
2023-02-19T01:16:55.589Z,7.48
2023-02-19T01:19:26.542Z,7.52
2023-02-19T01:22:00.411Z,8.02
2023-02-19T01:24:33.718Z,8.20
2023-02-19T01:27:04.156Z,7.99
2023-02-19T01:29:34.705Z,8.06
2023-02-19T01:32:05.584Z,7.96
2023-02-19T01:34:36.581Z,7.69
2023-02-19T01:37:12.540Z,7.48
2023-02-19T01:39:43.629Z,7.29
2023-02-19T01:42:19.179Z,6.81
2023-02-19T01:45:19.989Z,6.62
2023-02-19T01:47:58.919Z,6.43
2023-02-19T01:50:32.316Z,6.30
2023-02-19T01:53:09.489Z,6.37
2023-02-19T01:55:40.136Z,6.43
2023-02-19T01:58:13.796Z,6.40
2023-02-19T02:00:45.804Z,6.39
2023-02-19T02:03:16.589Z,6.41
2023-02-19T02:05:55.731Z,6.46
2023-02-19T02:08:42.235Z,6.42
2023-02-19T02:11:13.324Z,6.45
2023-02-19T02:13:44.578Z,6.37
2023-02-19T02:16:27.772Z,6.34
2023-02-19T02:19:05.336Z,6.29
2023-02-19T02:22:07.945Z,6.23
2023-02-19T02:25:18.351Z,6.19
2023-02-19T02:27:59.733Z,6.12
2023-02-19T02:30:51.500Z,6.08
2023-02-19T02:33:35.403Z,5.99
2023-02-19T02:36:08.626Z,5.94
2023-02-19T02:38:43.717Z,5.87
2023-02-19T02:41:17.942Z,5.77
2023-02-19T02:43:48.305Z,5.81
2023-02-19T02:46:23.836Z,5.75
2023-02-19T02:49:02.023Z,5.88
2023-02-19T02:51:37.785Z,6.08
2023-02-19T02:54:29.900Z,6.26
2023-02-19T02:57:04.265Z,6.30
2023-02-19T02:59:42.757Z,6.29
2023-02-19T03:02:15.464Z,6.39
2023-02-19T03:05:08.863Z,7.16
2023-02-19T03:07:42.711Z,7.24
2023-02-19T03:10:15.753Z,7.08
2023-02-19T03:13:01.048Z,7.09
2023-02-19T03:15:49.401Z,7.20
2023-02-19T03:18:34.218Z,7.18
2023-02-19T03:21:11.080Z,7.28
2023-02-19T03:23:56.147Z,7.17
2023-02-19T03:26:29.141Z,6.99
2023-02-19T03:29:13.945Z,6.86
2023-02-19T03:31:48.226Z,6.64
2023-02-19T03:34:26.047Z,6.48
2023-02-19T03:37:05.757Z,6.32
2023-02-19T03:39:44.799Z,6.30
2023-02-19T03:42:24.875Z,6.26
2023-02-19T03:45:08.263Z,6.15
2023-02-19T03:47:50.377Z,6.08
2023-02-19T03:50:26.188Z,5.96
2023-02-19T03:53:06.975Z,5.93
2023-02-19T03:55:46.077Z,5.81
2023-02-19T03:58:22.574Z,5.75
2023-02-19T04:01:02.776Z,5.72
2023-02-19T04:03:40.450Z,5.72
2023-02-19T04:06:16.087Z,5.74
2023-02-19T04:08:53.684Z,5.82
2023-02-19T04:11:26.144Z,5.78
2023-02-19T04:14:07.269Z,5.69
2023-02-19T04:16:42.971Z,5.62
2023-02-19T04:19:16.746Z,5.61
2023-02-19T04:21:48.864Z,5.60
2023-02-19T04:24:26.150Z,5.72
2023-02-19T04:26:57.396Z,5.77
2023-02-19T04:29:27.807Z,5.81
2023-02-19T04:31:58.215Z,5.90
2023-02-19T04:34:29.028Z,5.99
2023-02-19T04:36:59.786Z,6.01
2023-02-19T04:39:32.952Z,6.11
2023-02-19T04:42:03.692Z,6.21
2023-02-19T04:44:34.100Z,6.23
2023-02-19T04:47:04.960Z,6.28
2023-02-19T04:49:36.073Z,6.38
2023-02-19T04:52:06.727Z,6.42
2023-02-19T04:54:40.284Z,6.33
2023-02-19T04:57:10.710Z,6.35
2023-02-19T04:59:41.125Z,6.36
2023-02-19T05:02:11.829Z,6.42
2023-02-19T05:04:42.410Z,6.40
2023-02-19T05:07:13.211Z,6.44
2023-02-19T05:09:46.398Z,6.44
2023-02-19T05:12:17.134Z,6.45
2023-02-19T05:14:49.447Z,6.45
2023-02-19T05:17:19.907Z,6.48
2023-02-19T05:19:50.320Z,6.50
2023-02-19T05:22:20.938Z,6.46
2023-02-19T05:24:54.617Z,6.51
2023-02-19T05:27:25.028Z,6.51
2023-02-19T05:29:55.735Z,6.49
2023-02-19T05:32:26.347Z,6.52
2023-02-19T05:34:57.053Z,6.44
2023-02-19T05:37:28.219Z,6.39
2023-02-19T05:40:01.765Z,6.41
2023-02-19T05:42:32.155Z,6.44
2023-02-19T05:45:02.469Z,6.37
2023-02-19T05:47:32.926Z,6.47
2023-02-19T05:50:03.517Z,6.45
2023-02-19T05:52:34.287Z,6.41
2023-02-19T05:55:07.715Z,6.39
2023-02-19T05:57:43.975Z,6.43
2023-02-19T06:00:16.329Z,6.44
2023-02-19T06:02:47.915Z,6.42
2023-02-19T06:05:18.264Z,6.39
2023-02-19T06:07:50.563Z,6.42
2023-02-19T06:10:24.061Z,6.37
2023-02-19T06:12:56.752Z,6.42
2023-02-19T06:15:27.993Z,6.45
2023-02-19T06:17:58.513Z,6.43
2023-02-19T06:20:33.576Z,6.49
2023-02-19T06:23:04.069Z,6.53
2023-02-19T06:25:37.574Z,6.56
2023-02-19T06:28:09.762Z,6.50
2023-02-19T06:30:44.298Z,6.57
2023-02-19T06:33:15.166Z,6.62
2023-02-19T06:35:45.784Z,6.62
2023-02-19T06:38:15.990Z,6.67
2023-02-19T06:40:49.436Z,6.73
2023-02-19T06:43:19.973Z,6.69
2023-02-19T06:45:50.631Z,6.66
2023-02-19T06:48:21.285Z,6.76
2023-02-19T06:50:52.978Z,6.70
2023-02-19T06:53:23.817Z,6.66
2023-02-19T06:56:04.052Z,6.76
2023-02-19T06:58:35.821Z,6.79
2023-02-19T07:01:07.064Z,6.77
2023-02-19T07:03:37.784Z,6.77
2023-02-19T07:06:11.277Z,6.83
2023-02-19T07:08:41.732Z,6.79
2023-02-19T07:11:15.379Z,6.84
2023-02-19T07:13:45.798Z,6.86
2023-02-19T07:16:18.594Z,6.91
2023-02-19T07:18:49.219Z,6.93
2023-02-19T07:21:20.698Z,6.92
2023-02-19T07:23:50.892Z,7.00
2023-02-19T07:26:25.432Z,7.01
2023-02-19T07:28:56.558Z,7.06
2023-02-19T07:31:30.561Z,7.09
2023-02-19T07:34:01.111Z,7.11
2023-02-19T07:36:32.032Z,7.15
2023-02-19T07:39:03.211Z,7.09
2023-02-19T07:41:36.370Z,7.10
2023-02-19T07:44:07.339Z,7.18
2023-02-19T07:46:37.678Z,7.12
2023-02-19T07:49:08.079Z,7.17
2023-02-19T07:51:40.445Z,7.21
2023-02-19T07:54:11.647Z,7.19
2023-02-19T07:56:44.867Z,7.17
2023-02-19T07:59:16.376Z,7.20
2023-02-19T08:01:59.114Z,7.23
2023-02-19T08:04:29.494Z,7.17
2023-02-19T08:07:00.150Z,7.19
2023-02-19T08:09:30.797Z,7.13
2023-02-19T08:12:16.270Z,7.13
2023-02-19T08:14:46.579Z,7.12
2023-02-19T08:17:16.999Z,7.13
2023-02-19T08:19:47.381Z,7.17
2023-02-19T08:22:18.174Z,7.12
2023-02-19T08:24:48.581Z,7.11
2023-02-19T08:27:21.909Z,7.10
2023-02-19T08:29:52.459Z,7.03
2023-02-19T08:32:23.686Z,7.02
2023-02-19T08:34:54.363Z,6.96
2023-02-19T08:38:15.687Z,6.97
2023-02-19T08:40:48.510Z,7.00
2023-02-19T08:43:23.017Z,6.94
2023-02-19T08:45:57.202Z,6.97
2023-02-19T08:48:40.389Z,6.98
2023-02-19T08:51:14.543Z,7.07
2023-02-19T08:53:53.238Z,7.12
2023-02-19T08:56:25.810Z,7.19
2023-02-19T08:58:59.448Z,7.42
2023-02-19T09:01:30.225Z,7.51
2023-02-19T09:04:00.868Z,7.64
2023-02-19T09:06:31.355Z,7.78
2023-02-19T09:09:01.710Z,7.82
2023-02-19T09:11:32.140Z,7.87
2023-02-19T09:14:07.838Z,7.98
2023-02-19T09:16:38.974Z,8.00
2023-02-19T09:19:09.455Z,8.08
2023-02-19T09:21:40.675Z,8.12
2023-02-19T09:24:13.764Z,8.15
2023-02-19T09:26:44.502Z,8.25
2023-02-19T09:29:18.417Z,8.46
2023-02-19T09:31:49.271Z,8.48
2023-02-19T09:34:19.757Z,8.43
2023-02-19T09:36:53.694Z,8.42
2023-02-19T09:39:25.366Z,8.41
2023-02-19T09:41:59.887Z,8.52
2023-02-19T09:44:40.258Z,8.64
2023-02-19T09:47:23.376Z,8.72
2023-02-19T09:50:00.412Z,8.74
2023-02-19T09:52:39.109Z,8.65
2023-02-19T09:55:29.690Z,8.58
2023-02-19T09:58:06.978Z,8.57
2023-02-19T10:00:41.920Z,8.56
2023-02-19T10:03:18.745Z,8.67
2023-02-19T10:05:49.584Z,8.50
2023-02-19T10:08:23.294Z,8.46
2023-02-19T10:10:54.758Z,8.36
2023-02-19T10:13:33.114Z,8.31
2023-02-19T10:16:11.495Z,8.32
2023-02-19T10:18:46.375Z,8.38
2023-02-19T10:21:20.967Z,8.48
2023-02-19T10:23:55.792Z,8.54
2023-02-19T10:26:27.884Z,8.71
2023-02-19T10:28:58.921Z,8.85
2023-02-19T10:31:35.695Z,9.01
2023-02-19T10:34:08.337Z,9.12
2023-02-19T10:36:45.618Z,9.42
2023-02-19T10:39:39.430Z,9.58
2023-02-19T10:42:17.362Z,9.78
2023-02-19T10:44:53.930Z,10.00
2023-02-19T10:47:50.191Z,10.26
2023-02-19T10:50:43.578Z,10.27
2023-02-19T10:53:25.695Z,10.22
2023-02-19T10:56:16.537Z,10.84
2023-02-19T10:58:49.002Z,10.75
2023-02-19T11:01:23.204Z,10.85
2023-02-19T11:04:34.113Z,11.22
2023-02-19T11:07:12.201Z,11.24
2023-02-19T11:09:47.436Z,11.43
2023-02-19T11:12:26.757Z,11.71
2023-02-19T11:14:57.795Z,11.85
2023-02-19T11:17:31.199Z,12.12
2023-02-19T11:20:10.672Z,12.27
2023-02-19T11:22:47.397Z,12.40
2023-02-19T11:25:32.020Z,12.44
2023-02-19T11:28:10.207Z,12.47
2023-02-19T11:30:46.475Z,12.61
2023-02-19T11:33:30.708Z,12.49
2023-02-19T11:36:32.589Z,12.44
2023-02-19T11:39:14.368Z,12.89
2023-02-19T11:42:28.283Z,12.84
2023-02-19T11:45:13.993Z,12.46
2023-02-19T11:48:14.146Z,12.27
2023-02-19T11:50:58.362Z,12.01
2023-02-19T11:53:43.595Z,11.95
2023-02-19T11:59:30.311Z,12.18
2023-02-19T12:02:43.060Z,11.95
2023-02-19T12:05:27.776Z,11.81
2023-02-19T12:08:19.571Z,11.87
2023-02-19T12:11:08.725Z,11.80
2023-02-19T12:13:58.810Z,11.94
2023-02-19T12:19:50.475Z,12.73
2023-02-19T12:29:01.791Z,13.14
2023-02-19T12:32:18.052Z,13.09
2023-02-19T12:35:10.756Z,13.39
2023-02-19T12:37:57.542Z,13.17
2023-02-19T12:40:45.633Z,13.38
2023-02-19T12:43:29.743Z,13.30
2023-02-19T12:46:06.968Z,13.04
2023-02-19T12:48:50.094Z,12.78
2023-02-19T12:51:27.159Z,12.70
2023-02-19T12:54:02.369Z,12.81
2023-02-19T12:56:38.016Z,12.64
2023-02-19T12:59:15.905Z,12.80
2023-02-19T13:01:52.887Z,12.93
2023-02-19T13:04:38.569Z,12.73
2023-02-19T13:07:16.308Z,12.63
2023-02-19T13:09:53.081Z,12.52
2023-02-19T13:12:28.596Z,12.48
2023-02-19T13:15:02.924Z,12.41
2023-02-19T13:17:42.345Z,12.41
2023-02-19T13:20:26.183Z,12.45
2023-02-19T13:23:17.968Z,12.81
2023-02-19T13:26:04.669Z,13.05
2023-02-19T13:28:52.348Z,13.16
2023-02-19T13:31:41.932Z,13.36
2023-02-19T13:34:23.657Z,13.25
2023-02-19T13:36:58.200Z,13.34
2023-02-19T13:39:31.159Z,13.44
2023-02-19T13:42:02.796Z,13.44
2023-02-19T13:44:35.416Z,13.44
2023-02-19T13:47:07.151Z,13.45
2023-02-19T13:49:52.886Z,13.40
2023-02-19T13:52:53.401Z,13.37
2023-02-19T13:55:53.564Z,13.37
2023-02-19T13:58:40.301Z,13.29
2023-02-19T14:01:16.814Z,13.33
2023-02-19T14:03:57.221Z,13.33
2023-02-19T14:06:28.854Z,13.37
2023-02-19T14:09:07.617Z,13.41
2023-02-19T14:12:06.271Z,13.48
2023-02-19T14:14:39.814Z,13.45
2023-02-19T14:17:31.888Z,13.52
2023-02-19T14:20:05.604Z,13.67
2023-02-19T14:22:53.187Z,13.62
2023-02-19T14:57:15.745Z,10.86
2023-02-19T15:00:14.100Z,10.42
2023-02-19T15:03:17.312Z,10.10
2023-02-19T15:06:03.541Z,10.12
2023-02-19T15:08:57.427Z,10.10
2023-02-19T15:11:37.401Z,10.36
2023-02-19T15:17:23.228Z,10.49
2023-02-19T15:19:55.932Z,10.61
2023-02-19T15:22:32.509Z,10.72
2023-02-19T15:25:19.193Z,10.72
2023-02-19T15:27:52.877Z,10.66
2023-02-19T15:30:38.662Z,10.65
2023-02-19T15:33:31.647Z,10.62
2023-02-19T15:36:06.927Z,10.50
2023-02-19T15:38:41.183Z,10.52
2023-02-19T15:41:24.313Z,10.50
2023-02-19T15:44:09.633Z,10.49
2023-02-19T15:46:46.476Z,10.55
2023-02-19T15:49:33.146Z,10.48
2023-02-19T15:52:11.406Z,10.34
2023-02-19T15:54:53.224Z,10.40
2023-02-19T15:57:28.190Z,10.27
2023-02-19T16:00:06.373Z,10.28
2023-02-19T16:02:48.404Z,10.29
2023-02-19T16:05:37.553Z,10.28
2023-02-19T16:08:20.984Z,10.16
2023-02-19T16:11:09.723Z,10.04
2023-02-19T16:13:42.864Z,10.04
2023-02-19T16:16:23.553Z,9.96
2023-02-19T16:18:59.899Z,9.95
2023-02-19T16:21:39.659Z,9.84
2023-02-19T16:24:27.012Z,9.75
2023-02-19T16:27:05.287Z,9.73
2023-02-19T16:32:33.992Z,9.86
2023-02-19T16:35:23.411Z,9.78
2023-02-19T16:38:16.432Z,9.80
2023-02-19T16:41:11.106Z,9.83
2023-02-19T16:44:09.872Z,9.97
2023-02-19T16:46:43.572Z,10.10
2023-02-19T16:49:28.155Z,9.96
2023-02-19T16:52:16.762Z,9.78
2023-02-19T16:54:53.583Z,9.74
2023-02-19T16:57:24.917Z,9.54
2023-02-19T16:59:57.635Z,9.35
2023-02-19T17:02:34.592Z,9.08
2023-02-19T17:05:11.646Z,8.99
2023-02-19T17:07:56.411Z,9.01
2023-02-19T17:10:42.140Z,9.05
2023-02-19T17:13:13.892Z,9.24
2023-02-19T17:15:45.358Z,9.37
2023-02-19T17:18:16.489Z,9.36
2023-02-19T17:21:18.599Z,9.28
2023-02-19T17:31:03.444Z,8.92
2023-02-19T17:33:46.613Z,8.75
2023-02-19T17:45:02.961Z,8.75
2023-02-19T18:10:31.584Z,8.12
2023-02-19T18:23:39.879Z,7.33
2023-02-19T18:26:47.584Z,7.29
2023-02-19T18:29:23.032Z,7.23
2023-02-19T18:31:56.237Z,7.24
2023-02-19T18:34:32.848Z,7.28
2023-02-19T18:37:21.539Z,7.20
2023-02-19T18:39:59.156Z,7.17
2023-02-19T18:42:42.110Z,7.23
2023-02-19T18:45:26.825Z,7.25
2023-02-19T18:47:57.193Z,7.24
2023-02-19T18:50:27.826Z,7.28
2023-02-19T18:53:04.229Z,7.23
2023-02-19T18:55:34.642Z,7.21
2023-02-19T18:58:06.778Z,7.20
2023-02-19T19:00:37.948Z,7.14
2023-02-19T19:03:09.220Z,7.21
2023-02-19T19:05:40.002Z,7.06
2023-02-19T19:08:13.399Z,6.96
2023-02-19T19:10:43.757Z,6.96
2023-02-19T19:13:14.151Z,6.95
2023-02-19T19:15:45.608Z,6.84
2023-02-19T19:18:16.356Z,6.69
2023-02-19T19:20:47.046Z,6.62
2023-02-19T19:23:20.695Z,6.74
2023-02-19T19:25:51.136Z,6.57
2023-02-19T19:28:21.533Z,6.54
2023-02-19T19:30:53.080Z,6.56
2023-02-19T19:33:24.154Z,6.56
2023-02-19T19:35:54.824Z,6.56
2023-02-19T19:38:29.179Z,6.50
2023-02-19T19:40:59.567Z,6.50
2023-02-19T19:43:30.714Z,6.58
2023-02-19T19:46:01.633Z,6.69
2023-02-19T19:48:33.419Z,6.65
2023-02-19T19:51:04.601Z,6.65
2023-02-19T19:53:37.852Z,6.68
2023-02-19T19:56:11.683Z,6.64
2023-02-19T19:58:42.034Z,6.62
2023-02-19T20:01:13.227Z,6.71
2023-02-19T20:03:43.966Z,6.78
2023-02-19T20:06:14.664Z,6.76
2023-02-19T20:08:48.632Z,6.66
2023-02-19T20:11:18.938Z,6.75
2023-02-19T20:13:49.096Z,6.77
2023-02-19T20:16:29.298Z,6.86
2023-02-19T20:18:59.572Z,6.89
2023-02-19T20:21:29.957Z,6.76
2023-02-19T20:24:03.484Z,6.81
2023-02-19T20:26:34.094Z,6.85
2023-02-19T20:29:06.674Z,6.78
2023-02-19T20:31:38.624Z,6.89
2023-02-19T20:34:09.600Z,6.86
2023-02-19T20:36:45.891Z,6.85
2023-02-19T20:39:20.450Z,6.77
2023-02-19T20:41:52.497Z,6.77
2023-02-19T20:44:23.255Z,6.59
2023-02-19T20:47:17.849Z,6.66
2023-02-19T20:50:02.499Z,6.62
2023-02-19T20:52:34.808Z,6.51
2023-02-19T20:55:08.621Z,6.44
2023-02-19T20:57:39.074Z,6.39
2023-02-19T21:00:11.588Z,6.21
2023-02-19T21:02:42.884Z,6.25
2023-02-19T21:05:13.837Z,6.18
2023-02-19T21:07:44.493Z,6.08
2023-02-19T21:10:20.528Z,6.03
2023-02-19T21:12:52.603Z,6.00
2023-02-19T21:15:24.960Z,5.94
2023-02-19T21:17:55.403Z,6.00
2023-02-19T21:20:26.114Z,6.02
2023-02-19T21:22:57.055Z,5.96
2023-02-19T21:25:32.210Z,5.95
2023-02-19T21:28:03.401Z,5.96
2023-02-19T21:30:37.715Z,5.94
2023-02-19T21:33:08.934Z,5.85
2023-02-19T21:35:39.358Z,5.84
2023-02-19T21:38:09.758Z,5.82
2023-02-19T21:40:42.813Z,5.81
2023-02-19T21:43:13.266Z,5.77
2023-02-19T21:45:43.990Z,5.78
2023-02-19T21:48:16.556Z,5.77
2023-02-19T21:50:47.322Z,5.72
2023-02-19T21:53:18.788Z,5.65
2023-02-19T21:55:58.841Z,5.55
2023-02-19T21:58:29.749Z,5.50
2023-02-19T22:01:01.327Z,5.44
2023-02-19T22:03:31.900Z,5.31
2023-02-19T22:06:05.923Z,5.30
2023-02-19T22:08:36.542Z,5.18
2023-02-19T22:11:09.899Z,5.09
2023-02-19T22:13:40.509Z,5.09
2023-02-19T22:16:11.576Z,5.01
2023-02-19T22:18:42.545Z,4.92
2023-02-19T22:21:12.974Z,4.84
2023-02-19T22:23:46.879Z,4.79
2023-02-19T22:26:24.325Z,4.78
2023-02-19T22:28:54.823Z,4.72
2023-02-19T22:31:27.668Z,4.62
2023-02-19T22:33:59.730Z,4.63
2023-02-19T22:36:35.024Z,4.62
2023-02-19T22:39:05.576Z,4.57
2023-02-19T22:41:39.500Z,4.48
2023-02-19T22:44:09.679Z,4.48
2023-02-19T22:46:40.838Z,4.46
2023-02-19T22:49:19.437Z,4.39
2023-02-19T22:52:02.341Z,4.38
2023-02-19T22:54:33.329Z,4.32
2023-02-19T22:57:07.346Z,4.28
2023-02-19T22:59:37.842Z,4.27
2023-02-19T23:02:08.252Z,4.26
2023-02-19T23:04:38.742Z,4.15
2023-02-19T23:07:09.653Z,4.03
2023-02-19T23:09:40.349Z,4.05
2023-02-19T23:12:14.994Z,4.04
2023-02-19T23:14:45.742Z,3.97
2023-02-19T23:17:16.487Z,3.93
2023-02-19T23:19:47.406Z,3.83
2023-02-19T23:22:17.926Z,3.78
2023-02-19T23:24:48.608Z,3.75
2023-02-19T23:27:24.433Z,3.69
2023-02-19T23:29:54.660Z,3.65
2023-02-19T23:32:25.193Z,3.56
2023-02-19T23:34:55.505Z,3.54
2023-02-19T23:37:25.597Z,3.51
2023-02-19T23:39:56.226Z,3.40
2023-02-19T23:42:30.159Z,3.29
2023-02-19T23:45:00.838Z,3.27
2023-02-19T23:47:31.626Z,3.22
2023-02-19T23:50:02.256Z,3.15
2023-02-19T23:52:32.859Z,3.09
2023-02-19T23:55:03.607Z,3.04
2023-02-19T23:57:37.425Z,3.21
